createdAt,value
2023-02-16T00:02:01.223Z,7.70
2023-02-16T00:12:18.188Z,7.50
2023-02-16T00:22:17.000Z,7.40
2023-02-16T00:32:18.044Z,7.30
2023-02-16T00:42:16.906Z,7.20
2023-02-16T00:52:15.954Z,7.20
2023-02-16T01:02:16.307Z,7.10
2023-02-16T01:12:14.980Z,7.00
2023-02-16T01:22:14.039Z,7.00
2023-02-16T01:32:13.103Z,7.00
2023-02-16T01:42:12.045Z,6.90
2023-02-16T01:52:11.231Z,6.80
2023-02-16T02:02:10.004Z,6.80
2023-02-16T02:12:09.268Z,6.70
2023-02-16T02:22:28.027Z,6.60
2023-02-16T02:32:27.411Z,6.60
2023-02-16T02:42:26.860Z,6.50
2023-02-16T02:52:26.327Z,6.50
2023-02-16T03:02:25.172Z,6.40
2023-02-16T03:12:42.235Z,6.40
2023-02-16T03:22:59.248Z,6.30
2023-02-16T03:32:58.059Z,6.30
2023-02-16T03:43:15.141Z,6.30
2023-02-16T03:53:15.965Z,6.40
2023-02-16T04:03:16.087Z,6.40
2023-02-16T04:13:15.138Z,6.30
2023-02-16T04:23:14.215Z,6.30
2023-02-16T04:33:13.097Z,6.30
2023-02-16T04:43:12.055Z,6.30
2023-02-16T04:53:11.114Z,6.20
2023-02-16T05:03:10.888Z,6.10
2023-02-16T05:13:28.110Z,6.10
2023-02-16T05:23:27.115Z,6.10
2023-02-16T05:33:26.133Z,6.00
2023-02-16T05:43:25.181Z,6.00
2023-02-16T05:53:24.243Z,6.00
2023-02-16T06:03:23.110Z,5.90
2023-02-16T06:13:22.133Z,5.90
2023-02-16T06:23:21.180Z,5.90
2023-02-16T06:33:20.227Z,6.00
2023-02-16T06:43:19.051Z,6.30
2023-02-16T06:53:18.108Z,6.50
2023-02-16T07:03:17.199Z,6.70
2023-02-16T07:13:16.200Z,6.90
2023-02-16T07:23:15.228Z,7.20
2023-02-16T07:33:14.179Z,7.40
2023-02-16T07:43:13.122Z,7.60
2023-02-16T07:53:13.055Z,7.70
2023-02-16T08:03:12.292Z,7.70
2023-02-16T08:13:11.284Z,8.00
2023-02-16T08:23:10.130Z,8.40
2023-02-16T08:33:09.197Z,8.50
2023-02-16T08:43:08.439Z,8.70
2023-02-16T08:53:07.290Z,8.60
2023-02-16T09:03:06.812Z,8.60
2023-02-16T09:13:06.278Z,8.70
2023-02-16T09:23:05.492Z,8.80
2023-02-16T09:33:04.352Z,8.90
2023-02-16T09:43:03.117Z,9.70
2023-02-16T09:53:03.154Z,10.90
2023-02-16T10:03:02.133Z,11.40
2023-02-16T10:13:02.679Z,12.20
2023-02-16T10:23:02.176Z,12.30
2023-02-16T10:33:01.222Z,12.30
2023-02-16T10:43:00.357Z,11.70
2023-02-16T10:52:59.302Z,11.50
2023-02-16T11:03:01.347Z,11.50
2023-02-16T11:13:00.103Z,11.60
2023-02-16T11:22:59.126Z,11.90
2023-02-16T11:32:58.278Z,12.30
2023-02-16T11:42:57.344Z,12.80
2023-02-16T11:52:57.158Z,13.00
2023-02-16T12:02:56.117Z,13.20
2023-02-16T12:12:55.358Z,13.00
2023-02-16T12:22:54.223Z,13.30
2023-02-16T12:32:53.286Z,13.30
2023-02-16T12:42:52.221Z,13.20
2023-02-16T12:52:51.764Z,13.20
2023-02-16T13:02:51.120Z,13.50
2023-02-16T13:12:50.292Z,13.60
2023-02-16T13:22:49.153Z,13.30
2023-02-16T13:32:49.574Z,13.30
2023-02-16T13:42:48.609Z,13.60
2023-02-16T13:52:48.062Z,13.80
2023-02-16T14:02:47.170Z,14.00
2023-02-16T14:12:46.375Z,14.40
2023-02-16T14:22:45.218Z,14.80
2023-02-16T14:32:44.477Z,15.00
2023-02-16T14:42:43.324Z,15.00
2023-02-16T14:52:42.239Z,14.40
2023-02-16T15:02:41.271Z,14.10
2023-02-16T15:12:40.258Z,14.00
2023-02-16T15:22:41.214Z,13.80
2023-02-16T15:32:40.759Z,13.80
2023-02-16T15:42:39.414Z,13.90
2023-02-16T15:52:38.230Z,13.80
2023-02-16T16:02:37.341Z,13.80
2023-02-16T16:12:36.357Z,13.60
2023-02-16T16:22:35.452Z,13.20
2023-02-16T16:32:34.395Z,13.00
2023-02-16T16:42:33.613Z,12.80
2023-02-16T16:52:32.386Z,12.70
2023-02-16T17:02:34.485Z,12.60
2023-02-16T17:12:33.429Z,12.50
2023-02-16T17:22:32.558Z,12.40
2023-02-16T17:32:31.409Z,12.40
2023-02-16T17:42:30.460Z,12.30
2023-02-16T17:52:29.632Z,12.30
2023-02-16T18:02:28.544Z,12.30
2023-02-16T18:12:28.517Z,12.30
2023-02-16T18:22:27.309Z,12.20
2023-02-16T18:32:26.398Z,12.10
2023-02-16T18:42:25.554Z,11.90
2023-02-16T18:52:24.576Z,11.60
2023-02-16T19:02:23.658Z,11.50
2023-02-16T19:12:22.778Z,11.50
2023-02-16T19:22:21.774Z,11.40
2023-02-16T19:32:20.492Z,11.40
2023-02-16T19:42:21.117Z,11.20
2023-02-16T19:52:20.480Z,11.00
2023-02-16T20:02:19.638Z,10.80
2023-02-16T20:12:19.207Z,10.60
2023-02-16T20:22:18.688Z,10.70
2023-02-16T20:32:17.656Z,10.90
2023-02-16T20:42:16.417Z,11.00
2023-02-16T20:52:15.598Z,11.00
2023-02-16T21:02:14.581Z,11.00
2023-02-16T21:12:13.401Z,11.10
2023-02-16T21:22:12.544Z,11.20
2023-02-16T21:32:11.703Z,11.30
2023-02-16T21:42:10.660Z,11.40
2023-02-16T21:52:09.778Z,11.30
2023-02-16T22:02:08.783Z,11.30
2023-02-16T22:12:08.674Z,11.30
2023-02-16T22:22:07.667Z,11.20
2023-02-16T22:32:06.913Z,11.20
2023-02-16T22:42:05.757Z,11.20
2023-02-16T22:52:04.712Z,11.20
2023-02-16T23:02:03.606Z,11.20
2023-02-16T23:12:02.583Z,11.30
2023-02-16T23:22:01.738Z,11.20
2023-02-16T23:32:00.603Z,11.40
2023-02-16T23:41:59.622Z,11.50
2023-02-16T23:51:58.779Z,11.50
